createdAt,value
2022-10-20T00:02:24.000Z,7.5
2022-10-20T00:07:24.000Z,7.58
2022-10-20T00:17:24.000Z,8.96
2022-10-20T00:22:25.000Z,6.81
2022-10-20T00:27:24.000Z,6.99
2022-10-20T00:32:25.000Z,6.76
2022-10-20T00:37:24.000Z,7.19
2022-10-20T00:42:25.000Z,7.35
2022-10-20T00:47:25.000Z,7.78
2022-10-20T00:52:24.000Z,7.14
2022-10-20T00:57:24.000Z,8.25
2022-10-20T01:02:24.000Z,7.53
2022-10-20T01:07:24.000Z,6.37
2022-10-20T01:12:24.000Z,6.37
2022-10-20T01:17:25.000Z,6.46
2022-10-20T01:22:24.000Z,6.57
2022-10-20T01:32:25.000Z,7.25
2022-10-20T01:37:25.000Z,7.48
2022-10-20T01:42:25.000Z,7.71
2022-10-20T01:47:24.000Z,9.42
2022-10-20T01:52:24.000Z,7.02
2022-10-20T01:57:24.000Z,7.02
2022-10-20T02:02:24.000Z,6.93
2022-10-20T02:07:25.000Z,6.08
2022-10-20T02:12:24.000Z,6.38
2022-10-20T02:22:24.000Z,6.88
2022-10-20T02:27:24.000Z,6.71
2022-10-20T02:32:24.000Z,7.39
2022-10-20T02:37:24.000Z,7.45
2022-10-20T02:42:24.000Z,7
2022-10-20T02:47:25.000Z,7.74
2022-10-20T02:52:24.000Z,7.98
2022-10-20T02:57:24.000Z,8.11
2022-10-20T03:02:24.000Z,7.45
2022-10-20T03:07:24.000Z,7.05
2022-10-20T03:12:25.000Z,7.75
2022-10-20T03:17:24.000Z,7.97
2022-10-20T03:22:25.000Z,7.68
2022-10-20T03:27:24.000Z,7.8
2022-10-20T03:32:24.000Z,8.13
2022-10-20T03:37:24.000Z,8.38
2022-10-20T03:42:25.000Z,8.37
2022-10-20T03:47:24.000Z,8.69
2022-10-20T03:52:24.000Z,9.2
2022-10-20T03:57:24.000Z,8.9
2022-10-20T04:02:25.000Z,8.87
2022-10-20T04:07:24.000Z,9.2
2022-10-20T04:12:24.000Z,8.86
2022-10-20T04:17:24.000Z,8.65
2022-10-20T04:22:25.000Z,8.4
2022-10-20T04:27:25.000Z,8.39
2022-10-20T04:32:24.000Z,8.28
2022-10-20T04:37:24.000Z,9.22
2022-10-20T04:42:25.000Z,8.76
2022-10-20T04:47:24.000Z,8.78
2022-10-20T04:52:24.000Z,9.18
2022-10-20T04:57:25.000Z,9.13
2022-10-20T05:02:24.000Z,8.8
2022-10-20T05:07:24.000Z,9.51
2022-10-20T05:12:25.000Z,9.6
2022-10-20T05:17:25.000Z,9.53
2022-10-20T05:22:24.000Z,9.49
2022-10-20T05:27:25.000Z,9.09
2022-10-20T05:32:25.000Z,9.03
2022-10-20T05:37:24.000Z,9.68
2022-10-20T05:42:25.000Z,9.15
2022-10-20T05:47:25.000Z,8.86
2022-10-20T05:52:24.000Z,8.99
2022-10-20T05:57:24.000Z,9.14
2022-10-20T06:02:24.000Z,9.27
2022-10-20T06:07:24.000Z,10.09
2022-10-20T06:12:24.000Z,9.9
2022-10-20T06:17:24.000Z,9.69
2022-10-20T06:27:25.000Z,9.43
2022-10-20T06:32:25.000Z,9.64
2022-10-20T06:37:24.000Z,9.68
2022-10-20T06:42:25.000Z,9.46
2022-10-20T06:47:24.000Z,9.11
2022-10-20T06:52:25.000Z,8.48
2022-10-20T06:57:24.000Z,9.08
2022-10-20T07:02:24.000Z,9.03
2022-10-20T07:07:25.000Z,8.75
2022-10-20T07:12:24.000Z,8.01
2022-10-20T07:17:24.000Z,8.21
2022-10-20T07:22:25.000Z,7.58
2022-10-20T07:27:24.000Z,8.2
2022-10-20T07:32:24.000Z,7.9
2022-10-20T07:37:24.000Z,7.62
2022-10-20T07:42:25.000Z,7.05
2022-10-20T07:47:24.000Z,7.65
2022-10-20T07:52:24.000Z,6.89
2022-10-20T07:57:24.000Z,6.94
2022-10-20T08:02:24.000Z,7.01
2022-10-20T08:07:24.000Z,7.37
2022-10-20T08:12:25.000Z,8.11
2022-10-20T08:17:24.000Z,6.3
2022-10-20T08:22:25.000Z,6.12
2022-10-20T08:32:24.000Z,6.35
2022-10-20T08:42:25.000Z,6.35
2022-10-20T08:47:24.000Z,7.14
2022-10-20T08:57:24.000Z,6.82
2022-10-20T09:02:24.000Z,6.9
2022-10-20T09:07:25.000Z,6.41
2022-10-20T09:12:25.000Z,6.83
2022-10-20T09:17:24.000Z,7.21
2022-10-20T09:22:24.000Z,6.72
2022-10-20T09:27:25.000Z,7.77
2022-10-20T09:37:24.000Z,7.43
2022-10-20T09:42:24.000Z,7.47
2022-10-20T09:47:24.000Z,7.6
2022-10-20T09:52:24.000Z,7.65
2022-10-20T09:57:24.000Z,6.94
2022-10-20T10:02:24.000Z,7.86
2022-10-20T10:07:24.000Z,7.84
2022-10-20T10:12:24.000Z,8.17
2022-10-20T10:17:25.000Z,7.9
2022-10-20T10:22:24.000Z,8.02
2022-10-20T10:27:24.000Z,8.22
2022-10-20T10:32:24.000Z,9.55
2022-10-20T10:37:25.000Z,7.43
2022-10-20T10:42:24.000Z,6.92
2022-10-20T10:47:25.000Z,6.73
2022-10-20T10:52:25.000Z,6.16
2022-10-20T10:57:25.000Z,5.99
2022-10-20T11:02:24.000Z,6.03
2022-10-20T11:07:24.000Z,6.31
2022-10-20T11:12:24.000Z,5.79
2022-10-20T11:17:24.000Z,6.15
2022-10-20T11:22:25.000Z,5.94
2022-10-20T11:27:24.000Z,6.22
2022-10-20T11:32:24.000Z,6.35
2022-10-20T11:37:24.000Z,6.29
2022-10-20T11:42:25.000Z,6.77
2022-10-20T11:47:24.000Z,6.22
2022-10-20T11:52:24.000Z,5.56
2022-10-20T11:57:24.000Z,5.96
2022-10-20T12:02:25.000Z,5.44
2022-10-20T12:07:25.000Z,5.37
2022-10-20T12:12:24.000Z,6.12
2022-10-20T12:17:24.000Z,6.44
2022-10-20T12:22:24.000Z,6.03
2022-10-20T12:27:24.000Z,6.52
2022-10-20T12:32:25.000Z,5.64
2022-10-20T12:37:24.000Z,5.97
2022-10-20T12:42:24.000Z,5.77
2022-10-20T12:47:24.000Z,7.04
2022-10-20T12:52:24.000Z,5.55
2022-10-20T13:02:25.000Z,5.79
2022-10-20T13:07:25.000Z,6.49
2022-10-20T13:12:23.000Z,6.12
2022-10-20T13:22:24.000Z,5.4
2022-10-20T13:27:24.000Z,5.72
2022-10-20T13:32:24.000Z,6.17
2022-10-20T13:37:24.000Z,5.54
2022-10-20T13:42:24.000Z,5.89
2022-10-20T13:47:25.000Z,6.8
2022-10-20T13:52:24.000Z,6.85
2022-10-20T13:57:24.000Z,8
2022-10-20T14:02:25.000Z,7.55
2022-10-20T14:07:25.000Z,7.12
2022-10-20T14:12:24.000Z,7.33
2022-10-20T14:17:24.000Z,7.06
2022-10-20T14:22:24.000Z,6.45
2022-10-20T14:27:24.000Z,10.77
2022-10-20T14:32:24.000Z,22.6
2022-10-20T14:37:25.000Z,16.99
2022-10-20T14:42:24.000Z,23.74
2022-10-20T14:47:25.000Z,47.86
2022-10-20T14:52:24.000Z,45.15
2022-10-20T14:57:24.000Z,44.44
2022-10-20T15:02:24.000Z,52.66
2022-10-20T15:07:24.000Z,39.73
2022-10-20T15:12:24.000Z,25.69
2022-10-20T15:17:24.000Z,11.83
2022-10-20T15:22:25.000Z,17.54
2022-10-20T15:32:24.000Z,28.35
2022-10-20T15:37:25.000Z,20.03
2022-10-20T15:42:25.000Z,24.17
2022-10-20T15:47:24.000Z,11.91
2022-10-20T15:52:24.000Z,10.51
2022-10-20T15:57:25.000Z,9.94
2022-10-20T16:02:24.000Z,8.32
2022-10-20T16:07:25.000Z,8.97
2022-10-20T16:12:24.000Z,8.98
2022-10-20T16:17:24.000Z,8.98
2022-10-20T16:22:25.000Z,8.36
2022-10-20T16:27:24.000Z,8.49
2022-10-20T16:32:25.000Z,8.42
2022-10-20T16:37:24.000Z,7.55
2022-10-20T16:42:24.000Z,7.19
2022-10-20T16:47:25.000Z,7.47
2022-10-20T16:52:24.000Z,7.93
2022-10-20T16:57:24.000Z,6.81
2022-10-20T17:02:24.000Z,6.44
2022-10-20T17:17:25.000Z,5.9
2022-10-20T17:22:25.000Z,6.27
2022-10-20T17:27:24.000Z,6.28
2022-10-20T17:32:25.000Z,6.2
2022-10-20T17:37:24.000Z,6.08
2022-10-20T17:42:24.000Z,6.31
2022-10-20T17:47:24.000Z,6.68
2022-10-20T17:52:24.000Z,7.03
2022-10-20T17:57:24.000Z,6.05
2022-10-20T18:02:24.000Z,5.59
2022-10-20T18:12:24.000Z,6.58
2022-10-20T18:17:25.000Z,6.12
2022-10-20T18:22:25.000Z,6.81
2022-10-20T18:27:24.000Z,6.81
2022-10-20T18:32:24.000Z,6.94
2022-10-20T18:37:25.000Z,6.94
2022-10-20T18:42:24.000Z,7.05
2022-10-20T18:47:24.000Z,7.05
2022-10-20T18:52:24.000Z,6.29
2022-10-20T18:57:25.000Z,6.15
2022-10-20T19:02:24.000Z,6.61
2022-10-20T19:07:25.000Z,6.61
2022-10-20T19:17:25.000Z,6.6
2022-10-20T19:22:25.000Z,6.98
2022-10-20T19:27:24.000Z,6.22
2022-10-20T19:32:25.000Z,6.49
2022-10-20T19:37:24.000Z,6.39
2022-10-20T19:42:24.000Z,6.3
2022-10-20T19:47:24.000Z,6.71
2022-10-20T19:52:24.000Z,7.47
2022-10-20T19:57:24.000Z,7.03
2022-10-20T20:02:24.000Z,6.88
2022-10-20T20:07:24.000Z,6.81
2022-10-20T20:12:25.000Z,6.52
2022-10-20T20:17:24.000Z,6.72
2022-10-20T20:22:24.000Z,7.07
2022-10-20T20:27:24.000Z,7.04
2022-10-20T20:32:25.000Z,6.34
2022-10-20T20:37:24.000Z,6.39
2022-10-20T20:42:24.000Z,6.98
2022-10-20T20:47:24.000Z,7.11
2022-10-20T20:52:24.000Z,6.67
2022-10-20T20:57:25.000Z,6.25
2022-10-20T21:02:25.000Z,6.21
2022-10-20T21:07:24.000Z,6.12
2022-10-20T21:12:24.000Z,6.59
2022-10-20T21:17:24.000Z,6.11
2022-10-20T21:22:24.000Z,6.4
2022-10-20T21:27:24.000Z,6.59
2022-10-20T21:32:25.000Z,6.52
2022-10-20T21:37:25.000Z,6.65
2022-10-20T21:42:24.000Z,6.9
2022-10-20T21:47:24.000Z,7.9
2022-10-20T21:52:24.000Z,7.12
2022-10-20T21:57:25.000Z,7.39
2022-10-20T22:02:24.000Z,6.83
2022-10-20T22:07:24.000Z,6.5
2022-10-20T22:12:25.000Z,6.21
2022-10-20T22:17:24.000Z,5.8
2022-10-20T22:22:24.000Z,5.46
2022-10-20T22:27:25.000Z,5.9
2022-10-20T22:32:24.000Z,5.37
2022-10-20T22:42:24.000Z,5.83
2022-10-20T22:47:25.000Z,6.07
2022-10-20T22:52:25.000Z,5.73
2022-10-20T22:57:24.000Z,5.76
2022-10-20T23:02:25.000Z,5.9
2022-10-20T23:07:24.000Z,5.52
2022-10-20T23:12:24.000Z,5.73
2022-10-20T23:17:25.000Z,5.5
2022-10-20T23:22:24.000Z,5.52
2022-10-20T23:27:24.000Z,5.77
2022-10-20T23:32:24.000Z,5.64
2022-10-20T23:37:25.000Z,5.86
2022-10-20T23:42:24.000Z,5.51
2022-10-20T23:47:24.000Z,5.55
2022-10-20T23:52:24.000Z,5.51
2022-10-20T23:57:24.000Z,5.8
